Terminal Aerodrome Forecast
Issued by NWS

Home | Current Version | Previous Version | Text Only | Print | Product List | Glossary On
Versions: 1 2 3 4 5 6 7 8 9 10 11 12 13 14 15 16 17 18 19 20 21 22 23 24 25 26
216
FTUS41 KBUF 112339
TAFJHW
TAF
KJHW 112339Z 1200/1224 29012KT 2SM -SHSN SCT007 BKN015
     FM120200 29012KT 4SM -SHSN OVC015
     FM120500 27008KT P6SM VCSH BKN020
     FM121000 22010KT P6SM BKN012
     FM121800 23014G21KT P6SM VCSH BKN025
     FM122300 24012KT 1 1/2SM -SN OVC015
      AMD LTD TO CLD VIS AND WIND=

USA.gov is the U.S. government's official web portal to all federal, state and local government web resources and services.